sensor_id;sensor_type;location;lat;lon;timestamp;P1;durP1;ratioP1;P2;durP2;ratioP2
20073;SDS011;10197;54.282;10.078;2023-04-01T00:01:57;14.48;;;10.85;;
20073;SDS011;10197;54.282;10.078;2023-04-01T00:04:24;17.75;;;11.88;;
20073;SDS011;10197;54.282;10.078;2023-04-01T00:06:50;18.33;;;12.35;;
20073;SDS011;10197;54.282;10.078;2023-04-01T00:09:18;17.38;;;11.85;;
20073;SDS011;10197;54.282;10.078;2023-04-01T00:11:45;15.32;;;10.93;;
20073;SDS011;10197;54.282;10.078;2023-04-01T00:14:12;16.13;;;9.65;;
20073;SDS011;10197;54.282;10.078;2023-04-01T00:16:39;15.02;;;9.82;;
20073;SDS011;10197;54.282;10.078;2023-04-01T00:19:07;15.02;;;10.27;;
20073;SDS011;10197;54.282;10.078;2023-04-01T00:21:34;14.30;;;9.65;;
20073;SDS011;10197;54.282;10.078;2023-04-01T00:24:02;14.43;;;9.27;;
20073;SDS011;10197;54.282;10.078;2023-04-01T00:26:28;14.07;;;10.18;;
20073;SDS011;10197;54.282;10.078;2023-04-01T00:28:55;13.98;;;8.65;;
20073;SDS011;10197;54.282;10.078;2023-04-01T00:31:22;13.35;;;9.68;;
20073;SDS011;10197;54.282;10.078;2023-04-01T00:33:50;12.65;;;8.23;;
20073;SDS011;10197;54.282;10.078;2023-04-01T00:36:20;12.05;;;9.23;;
20073;SDS011;10197;54.282;10.078;2023-04-01T00:38:48;12.45;;;9.20;;
20073;SDS011;10197;54.282;10.078;2023-04-01T00:41:16;12.63;;;8.02;;
20073;SDS011;10197;54.282;10.078;2023-04-01T00:43:44;11.98;;;7.55;;
20073;SDS011;10197;54.282;10.078;2023-04-01T00:46:13;10.23;;;6.85;;
20073;SDS011;10197;54.282;10.078;2023-04-01T00:48:41;9.05;;;6.65;;
20073;SDS011;10197;54.282;10.078;2023-04-01T00:51:10;10.00;;;6.78;;
20073;SDS011;10197;54.282;10.078;2023-04-01T00:53:41;8.23;;;5.95;;
20073;SDS011;10197;54.282;10.078;2023-04-01T00:56:11;6.88;;;5.30;;
20073;SDS011;10197;54.282;10.078;2023-04-01T00:58:40;8.38;;;5.90;;
20073;SDS011;10197;54.282;10.078;2023-04-01T01:01:09;6.72;;;4.78;;
20073;SDS011;10197;54.282;10.078;2023-04-01T01:03:36;7.00;;;4.80;;
20073;SDS011;10197;54.282;10.078;2023-04-01T01:06:10;5.55;;;5.00;;
20073;SDS011;10197;54.282;10.078;2023-04-01T01:08:55;4.70;;;4.20;;
20073;SDS011;10197;54.282;10.078;2023-04-01T01:11:34;5.60;;;4.30;;
20073;SDS011;10197;54.282;10.078;2023-04-01T01:14:06;9.52;;;5.30;;
20073;SDS011;10197;54.282;10.078;2023-04-01T01:16:48;7.88;;;5.60;;
20073;SDS011;10197;54.282;10.078;2023-04-01T01:19:28;5.63;;;5.07;;
20073;SDS011;10197;54.282;10.078;2023-04-01T01:25:18;6.32;;;5.38;;
20073;SDS011;10197;54.282;10.078;2023-04-01T01:27:57;6.38;;;5.38;;
20073;SDS011;10197;54.282;10.078;2023-04-01T01:30:33;8.45;;;5.18;;
20073;SDS011;10197;54.282;10.078;2023-04-01T01:33:13;7.15;;;5.38;;
20073;SDS011;10197;54.282;10.078;2023-04-01T01:35:53;7.13;;;5.93;;
20073;SDS011;10197;54.282;10.078;2023-04-01T01:38:22;7.32;;;5.45;;
20073;SDS011;10197;54.282;10.078;2023-04-01T01:41:08;8.88;;;5.35;;
20073;SDS011;10197;54.282;10.078;2023-04-01T01:43:36;10.25;;;5.53;;
20073;SDS011;10197;54.282;10.078;2023-04-01T01:46:07;8.00;;;5.88;;
20073;SDS011;10197;54.282;10.078;2023-04-01T01:48:37;7.30;;;5.50;;
20073;SDS011;10197;54.282;10.078;2023-04-01T01:51:06;6.97;;;4.82;;
20073;SDS011;10197;54.282;10.078;2023-04-01T01:53:33;7.93;;;5.35;;
20073;SDS011;10197;54.282;10.078;2023-04-01T01:56:00;5.55;;;4.90;;
20073;SDS011;10197;54.282;10.078;2023-04-01T01:58:32;5.50;;;4.63;;
20073;SDS011;10197;54.282;10.078;2023-04-01T02:01:07;5.88;;;5.05;;
20073;SDS011;10197;54.282;10.078;2023-04-01T02:03:37;5.90;;;4.30;;
20073;SDS011;10197;54.282;10.078;2023-04-01T02:06:08;6.25;;;4.47;;
20073;SDS011;10197;54.282;10.078;2023-04-01T02:08:39;4.97;;;4.38;;
20073;SDS011;10197;54.282;10.078;2023-04-01T02:11:08;4.47;;;3.50;;
20073;SDS011;10197;54.282;10.078;2023-04-01T02:13:40;3.90;;;3.28;;
20073;SDS011;10197;54.282;10.078;2023-04-01T02:16:11;6.63;;;3.38;;
20073;SDS011;10197;54.282;10.078;2023-04-01T02:18:40;3.17;;;2.88;;
20073;SDS011;10197;54.282;10.078;2023-04-01T02:21:09;3.72;;;2.90;;
20073;SDS011;10197;54.282;10.078;2023-04-01T02:23:37;3.55;;;2.97;;
20073;SDS011;10197;54.282;10.078;2023-04-01T02:26:05;3.80;;;2.80;;
20073;SDS011;10197;54.282;10.078;2023-04-01T02:28:35;3.38;;;2.83;;
20073;SDS011;10197;54.282;10.078;2023-04-01T02:31:04;2.97;;;2.50;;
20073;SDS011;10197;54.282;10.078;2023-04-01T02:33:31;2.83;;;2.50;;
20073;SDS011;10197;54.282;10.078;2023-04-01T02:35:59;3.20;;;2.30;;
20073;SDS011;10197;54.282;10.078;2023-04-01T02:38:28;3.53;;;1.85;;
20073;SDS011;10197;54.282;10.078;2023-04-01T02:40:56;3.20;;;1.90;;
20073;SDS011;10197;54.282;10.078;2023-04-01T02:43:25;2.40;;;1.90;;
20073;SDS011;10197;54.282;10.078;2023-04-01T02:45:52;2.10;;;1.60;;
20073;SDS011;10197;54.282;10.078;2023-04-01T02:48:19;1.90;;;1.70;;
20073;SDS011;10197;54.282;10.078;2023-04-01T02:50:46;1.67;;;1.48;;
20073;SDS011;10197;54.282;10.078;2023-04-01T02:53:13;2.50;;;1.50;;
20073;SDS011;10197;54.282;10.078;2023-04-01T02:55:42;1.55;;;1.45;;
20073;SDS011;10197;54.282;10.078;2023-04-01T02:58:10;1.88;;;1.50;;
20073;SDS011;10197;54.282;10.078;2023-04-01T03:00:37;1.55;;;1.45;;
20073;SDS011;10197;54.282;10.078;2023-04-01T03:03:07;2.60;;;1.50;;
20073;SDS011;10197;54.282;10.078;2023-04-01T03:05:34;1.58;;;1.40;;
20073;SDS011;10197;54.282;10.078;2023-04-01T03:08:01;1.90;;;1.50;;
20073;SDS011;10197;54.282;10.078;2023-04-01T03:10:28;1.80;;;1.42;;
20073;SDS011;10197;54.282;10.078;2023-04-01T03:12:59;2.78;;;1.73;;
20073;SDS011;10197;54.282;10.078;2023-04-01T03:15:26;1.83;;;1.33;;
20073;SDS011;10197;54.282;10.078;2023-04-01T03:17:53;4.93;;;1.70;;
20073;SDS011;10197;54.282;10.078;2023-04-01T03:20:20;2.13;;;1.40;;
20073;SDS011;10197;54.282;10.078;2023-04-01T03:22:47;1.83;;;1.33;;
20073;SDS011;10197;54.282;10.078;2023-04-01T03:25:14;2.03;;;1.23;;
20073;SDS011;10197;54.282;10.078;2023-04-01T03:27:40;2.38;;;1.50;;
20073;SDS011;10197;54.282;10.078;2023-04-01T03:30:09;1.92;;;1.20;;
20073;SDS011;10197;54.282;10.078;2023-04-01T03:32:45;1.70;;;1.33;;
20073;SDS011;10197;54.282;10.078;2023-04-01T03:35:12;1.45;;;1.20;;
20073;SDS011;10197;54.282;10.078;2023-04-01T03:37:39;1.35;;;1.20;;
20073;SDS011;10197;54.282;10.078;2023-04-01T03:40:07;3.08;;;1.23;;
20073;SDS011;10197;54.282;10.078;2023-04-01T03:42:34;1.35;;;1.17;;
20073;SDS011;10197;54.282;10.078;2023-04-01T03:45:02;1.20;;;1.20;;
20073;SDS011;10197;54.282;10.078;2023-04-01T03:47:30;2.20;;;1.02;;
20073;SDS011;10197;54.282;10.078;2023-04-01T03:49:57;1.13;;;1.10;;
20073;SDS011;10197;54.282;10.078;2023-04-01T03:52:25;1.30;;;1.20;;
20073;SDS011;10197;54.282;10.078;2023-04-01T03:54:52;1.50;;;1.40;;
20073;SDS011;10197;54.282;10.078;2023-04-01T03:57:19;1.23;;;1.10;;
20073;SDS011;10197;54.282;10.078;2023-04-01T03:59:46;1.92;;;1.15;;
20073;SDS011;10197;54.282;10.078;2023-04-01T04:02:13;2.97;;;1.30;;
20073;SDS011;10197;54.282;10.078;2023-04-01T04:04:42;1.48;;;1.38;;
20073;SDS011;10197;54.282;10.078;2023-04-01T04:07:09;2.22;;;1.23;;
20073;SDS011;10197;54.282;10.078;2023-04-01T04:10:06;1.75;;;1.23;;
20073;SDS011;10197;54.282;10.078;2023-04-01T04:12:34;2.25;;;1.38;;
20073;SDS011;10197;54.282;10.078;2023-04-01T04:15:01;3.13;;;1.55;;
20073;SDS011;10197;54.282;10.078;2023-04-01T04:17:28;1.83;;;1.73;;
20073;SDS011;10197;54.282;10.078;2023-04-01T04:19:56;1.63;;;1.52;;
20073;SDS011;10197;54.282;10.078;2023-04-01T04:22:23;3.80;;;1.80;;
20073;SDS011;10197;54.282;10.078;2023-04-01T04:24:51;2.88;;;2.10;;
20073;SDS011;10197;54.282;10.078;2023-04-01T04:27:18;4.40;;;1.67;;
20073;SDS011;10197;54.282;10.078;2023-04-01T04:29:57;2.15;;;1.95;;
20073;SDS011;10197;54.282;10.078;2023-04-01T04:32:24;2.60;;;1.50;;
20073;SDS011;10197;54.282;10.078;2023-04-01T04:34:51;2.10;;;1.90;;
20073;SDS011;10197;54.282;10.078;2023-04-01T04:37:20;1.90;;;1.80;;
20073;SDS011;10197;54.282;10.078;2023-04-01T04:39:47;2.25;;;2.05;;
20073;SDS011;10197;54.282;10.078;2023-04-01T04:42:13;2.42;;;2.00;;
20073;SDS011;10197;54.282;10.078;2023-04-01T04:44:41;6.30;;;2.10;;
20073;SDS011;10197;54.282;10.078;2023-04-01T04:47:07;2.35;;;2.10;;
20073;SDS011;10197;54.282;10.078;2023-04-01T04:49:35;3.63;;;2.10;;
20073;SDS011;10197;54.282;10.078;2023-04-01T04:52:06;2.53;;;2.13;;
20073;SDS011;10197;54.282;10.078;2023-04-01T04:54:35;2.53;;;1.70;;
20073;SDS011;10197;54.282;10.078;2023-04-01T04:57:03;2.70;;;1.73;;
20073;SDS011;10197;54.282;10.078;2023-04-01T04:59:35;3.83;;;2.05;;
20073;SDS011;10197;54.282;10.078;2023-04-01T05:02:24;3.33;;;2.20;;
20073;SDS011;10197;54.282;10.078;2023-04-01T05:04:51;5.50;;;2.75;;
20073;SDS011;10197;54.282;10.078;2023-04-01T05:07:18;3.25;;;2.10;;
20073;SDS011;10197;54.282;10.078;2023-04-01T05:09:46;3.95;;;2.20;;
20073;SDS011;10197;54.282;10.078;2023-04-01T05:12:14;2.67;;;2.03;;
20073;SDS011;10197;54.282;10.078;2023-04-01T05:15:01;2.45;;;2.00;;
20073;SDS011;10197;54.282;10.078;2023-04-01T05:17:29;3.20;;;2.10;;
20073;SDS011;10197;54.282;10.078;2023-04-01T05:19:56;2.53;;;2.10;;
20073;SDS011;10197;54.282;10.078;2023-04-01T05:22:24;1.90;;;1.80;;
20073;SDS011;10197;54.282;10.078;2023-04-01T05:24:53;1.77;;;1.67;;
20073;SDS011;10197;54.282;10.078;2023-04-01T05:27:20;2.55;;;2.10;;
20073;SDS011;10197;54.282;10.078;2023-04-01T05:29:51;2.40;;;2.20;;
20073;SDS011;10197;54.282;10.078;2023-04-01T05:32:50;2.80;;;2.60;;
20073;SDS011;10197;54.282;10.078;2023-04-01T05:35:17;3.85;;;2.60;;
20073;SDS011;10197;54.282;10.078;2023-04-01T05:37:44;3.38;;;2.67;;
20073;SDS011;10197;54.282;10.078;2023-04-01T05:40:15;2.70;;;2.50;;
20073;SDS011;10197;54.282;10.078;2023-04-01T05:42:42;3.22;;;2.42;;
20073;SDS011;10197;54.282;10.078;2023-04-01T05:45:09;2.88;;;2.67;;
20073;SDS011;10197;54.282;10.078;2023-04-01T05:47:54;3.38;;;2.88;;
20073;SDS011;10197;54.282;10.078;2023-04-01T05:50:21;2.75;;;2.50;;
20073;SDS011;10197;54.282;10.078;2023-04-01T05:52:48;4.78;;;2.90;;
20073;SDS011;10197;54.282;10.078;2023-04-01T05:55:17;3.00;;;2.70;;
20073;SDS011;10197;54.282;10.078;2023-04-01T05:57:44;3.08;;;2.78;;
20073;SDS011;10197;54.282;10.078;2023-04-01T06:00:13;2.70;;;2.50;;
20073;SDS011;10197;54.282;10.078;2023-04-01T06:02:41;4.35;;;2.50;;
20073;SDS011;10197;54.282;10.078;2023-04-01T06:05:13;3.28;;;2.85;;
20073;SDS011;10197;54.282;10.078;2023-04-01T06:07:41;2.85;;;2.65;;
20073;SDS011;10197;54.282;10.078;2023-04-01T06:10:15;4.85;;;2.88;;
20073;SDS011;10197;54.282;10.078;2023-04-01T06:12:47;3.78;;;2.85;;
20073;SDS011;10197;54.282;10.078;2023-04-01T06:15:25;3.28;;;2.60;;
20073;SDS011;10197;54.282;10.078;2023-04-01T06:18:00;3.58;;;2.53;;
20073;SDS011;10197;54.282;10.078;2023-04-01T06:20:36;2.85;;;2.47;;
20073;SDS011;10197;54.282;10.078;2023-04-01T06:23:10;2.72;;;2.53;;
20073;SDS011;10197;54.282;10.078;2023-04-01T06:25:46;2.35;;;2.15;;
20073;SDS011;10197;54.282;10.078;2023-04-01T06:31:23;2.47;;;2.28;;
20073;SDS011;10197;54.282;10.078;2023-04-01T06:34:04;2.63;;;2.17;;
20073;SDS011;10197;54.282;10.078;2023-04-01T06:36:46;3.58;;;2.20;;
20073;SDS011;10197;54.282;10.078;2023-04-01T06:39:33;4.15;;;2.00;;
20073;SDS011;10197;54.282;10.078;2023-04-01T06:42:13;2.50;;;2.30;;
20073;SDS011;10197;54.282;10.078;2023-04-01T06:44:51;4.00;;;2.30;;
20073;SDS011;10197;54.282;10.078;2023-04-01T06:47:45;4.40;;;2.53;;
20073;SDS011;10197;54.282;10.078;2023-04-01T06:50:40;3.72;;;2.58;;
20073;SDS011;10197;54.282;10.078;2023-04-01T06:53:31;3.08;;;2.20;;
20073;SDS011;10197;54.282;10.078;2023-04-01T06:56:21;2.50;;;2.05;;
20073;SDS011;10197;54.282;10.078;2023-04-01T06:59:10;3.55;;;2.30;;
20073;SDS011;10197;54.282;10.078;2023-04-01T07:01:41;3.30;;;2.40;;
20073;SDS011;10197;54.282;10.078;2023-04-01T07:04:10;3.22;;;2.72;;
20073;SDS011;10197;54.282;10.078;2023-04-01T07:06:42;3.33;;;2.45;;
20073;SDS011;10197;54.282;10.078;2023-04-01T07:09:12;6.93;;;2.75;;
20073;SDS011;10197;54.282;10.078;2023-04-01T07:12:06;7.88;;;3.70;;
20073;SDS011;10197;54.282;10.078;2023-04-01T07:15:01;4.25;;;2.72;;
20073;SDS011;10197;54.282;10.078;2023-04-01T07:17:33;3.38;;;2.38;;
20073;SDS011;10197;54.282;10.078;2023-04-01T07:20:03;2.42;;;2.13;;
20073;SDS011;10197;54.282;10.078;2023-04-01T07:22:36;4.32;;;2.20;;
20073;SDS011;10197;54.282;10.078;2023-04-01T07:25:29;3.67;;;2.08;;
20073;SDS011;10197;54.282;10.078;2023-04-01T07:28:19;3.10;;;2.67;;
20073;SDS011;10197;54.282;10.078;2023-04-01T07:30:58;2.58;;;2.38;;
20073;SDS011;10197;54.282;10.078;2023-04-01T07:33:35;3.38;;;2.58;;
20073;SDS011;10197;54.282;10.078;2023-04-01T07:36:07;5.25;;;2.60;;
20073;SDS011;10197;54.282;10.078;2023-04-01T07:38:40;3.00;;;2.70;;
20073;SDS011;10197;54.282;10.078;2023-04-01T07:41:23;5.72;;;2.00;;
20073;SDS011;10197;54.282;10.078;2023-04-01T07:43:56;2.70;;;2.45;;
20073;SDS011;10197;54.282;10.078;2023-04-01T07:46:46;2.50;;;2.30;;
20073;SDS011;10197;54.282;10.078;2023-04-01T07:49:25;3.08;;;2.40;;
20073;SDS011;10197;54.282;10.078;2023-04-01T07:51:58;2.65;;;2.42;;
20073;SDS011;10197;54.282;10.078;2023-04-01T07:54:31;3.97;;;2.53;;
20073;SDS011;10197;54.282;10.078;2023-04-01T07:57:02;4.30;;;2.40;;
20073;SDS011;10197;54.282;10.078;2023-04-01T07:59:55;3.00;;;2.70;;
20073;SDS011;10197;54.282;10.078;2023-04-01T08:02:43;3.45;;;2.38;;
20073;SDS011;10197;54.282;10.078;2023-04-01T08:05:22;5.50;;;2.70;;
20073;SDS011;10197;54.282;10.078;2023-04-01T08:07:54;4.85;;;2.58;;
20073;SDS011;10197;54.282;10.078;2023-04-01T08:10:45;2.88;;;2.35;;
20073;SDS011;10197;54.282;10.078;2023-04-01T08:13:34;4.72;;;2.35;;
20073;SDS011;10197;54.282;10.078;2023-04-01T08:16:28;3.33;;;2.47;;
20073;SDS011;10197;54.282;10.078;2023-04-01T08:19:04;3.08;;;2.58;;
20073;SDS011;10197;54.282;10.078;2023-04-01T08:21:43;4.40;;;2.40;;
20073;SDS011;10197;54.282;10.078;2023-04-01T08:24:16;4.90;;;2.70;;
20073;SDS011;10197;54.282;10.078;2023-04-01T08:26:48;3.90;;;2.40;;
20073;SDS011;10197;54.282;10.078;2023-04-01T08:29:21;6.07;;;3.42;;
20073;SDS011;10197;54.282;10.078;2023-04-01T08:31:51;4.97;;;2.55;;
20073;SDS011;10197;54.282;10.078;2023-04-01T08:34:24;6.55;;;2.50;;
20073;SDS011;10197;54.282;10.078;2023-04-01T08:36:59;4.45;;;2.65;;
20073;SDS011;10197;54.282;10.078;2023-04-01T08:39:29;4.25;;;2.80;;
20073;SDS011;10197;54.282;10.078;2023-04-01T08:42:04;4.68;;;3.20;;
20073;SDS011;10197;54.282;10.078;2023-04-01T08:48:04;7.63;;;3.13;;
20073;SDS011;10197;54.282;10.078;2023-04-01T08:50:56;4.95;;;3.40;;
20073;SDS011;10197;54.282;10.078;2023-04-01T08:53:50;3.88;;;2.75;;
20073;SDS011;10197;54.282;10.078;2023-04-01T08:56:40;6.45;;;3.28;;
20073;SDS011;10197;54.282;10.078;2023-04-01T08:59:19;6.60;;;3.15;;
20073;SDS011;10197;54.282;10.078;2023-04-01T09:02:04;5.05;;;3.20;;
20073;SDS011;10197;54.282;10.078;2023-04-01T09:04:58;4.97;;;3.50;;
20073;SDS011;10197;54.282;10.078;2023-04-01T09:07:39;5.47;;;3.17;;
20073;SDS011;10197;54.282;10.078;2023-04-01T09:19:55;5.63;;;4.50;;
20073;SDS011;10197;54.282;10.078;2023-04-01T09:22:37;8.68;;;4.55;;
20073;SDS011;10197;54.282;10.078;2023-04-01T09:28:14;10.23;;;4.90;;
20073;SDS011;10197;54.282;10.078;2023-04-01T09:33:51;12.63;;;5.40;;
20073;SDS011;10197;54.282;10.078;2023-04-01T09:36:57;9.88;;;5.35;;
20073;SDS011;10197;54.282;10.078;2023-04-01T09:39:37;8.65;;;5.53;;
20073;SDS011;10197;54.282;10.078;2023-04-01T09:42:15;8.85;;;5.68;;
20073;SDS011;10197;54.282;10.078;2023-04-01T09:45:13;11.55;;;5.13;;
20073;SDS011;10197;54.282;10.078;2023-04-01T09:47:51;9.48;;;5.78;;
20073;SDS011;10197;54.282;10.078;2023-04-01T09:50:29;10.40;;;5.60;;
20073;SDS011;10197;54.282;10.078;2023-04-01T09:53:04;10.77;;;5.80;;
20073;SDS011;10197;54.282;10.078;2023-04-01T09:56:02;10.43;;;5.80;;
20073;SDS011;10197;54.282;10.078;2023-04-01T10:08:54;11.13;;;6.00;;
20073;SDS011;10197;54.282;10.078;2023-04-01T10:17:54;12.63;;;5.80;;
20073;SDS011;10197;54.282;10.078;2023-04-01T10:20:46;7.93;;;5.72;;
20073;SDS011;10197;54.282;10.078;2023-04-01T10:23:34;10.02;;;5.78;;
20073;SDS011;10197;54.282;10.078;2023-04-01T10:26:24;12.48;;;6.40;;
20073;SDS011;10197;54.282;10.078;2023-04-01T10:42:21;14.82;;;8.30;;
20073;SDS011;10197;54.282;10.078;2023-04-01T10:45:45;12.52;;;6.03;;
20073;SDS011;10197;54.282;10.078;2023-04-01T10:48:24;16.95;;;7.50;;
20073;SDS011;10197;54.282;10.078;2023-04-01T10:51:22;18.95;;;7.90;;
20073;SDS011;10197;54.282;10.078;2023-04-01T10:54:13;12.90;;;7.13;;
20073;SDS011;10197;54.282;10.078;2023-04-01T10:57:10;14.60;;;6.68;;
20073;SDS011;10197;54.282;10.078;2023-04-01T11:13:52;13.45;;;6.25;;
20073;SDS011;10197;54.282;10.078;2023-04-01T11:16:35;16.05;;;7.10;;
20073;SDS011;10197;54.282;10.078;2023-04-01T11:22:14;21.40;;;7.88;;
20073;SDS011;10197;54.282;10.078;2023-04-01T11:25:00;14.40;;;7.25;;
20073;SDS011;10197;54.282;10.078;2023-04-01T11:27:43;12.48;;;6.65;;
20073;SDS011;10197;54.282;10.078;2023-04-01T11:30:25;19.25;;;8.30;;
20073;SDS011;10197;54.282;10.078;2023-04-01T11:32:57;13.48;;;7.15;;
20073;SDS011;10197;54.282;10.078;2023-04-01T11:35:39;14.05;;;7.00;;
20073;SDS011;10197;54.282;10.078;2023-04-01T11:38:19;13.20;;;6.97;;
20073;SDS011;10197;54.282;10.078;2023-04-01T11:40:58;13.45;;;6.72;;
20073;SDS011;10197;54.282;10.078;2023-04-01T11:44:03;17.17;;;9.48;;
20073;SDS011;10197;54.282;10.078;2023-04-01T11:47:07;15.23;;;7.20;;
20073;SDS011;10197;54.282;10.078;2023-04-01T11:49:57;13.00;;;6.95;;
20073;SDS011;10197;54.282;10.078;2023-04-01T11:52:41;16.40;;;7.68;;
20073;SDS011;10197;54.282;10.078;2023-04-01T11:55:30;14.63;;;8.32;;
20073;SDS011;10197;54.282;10.078;2023-04-01T11:58:06;16.38;;;7.82;;
20073;SDS011;10197;54.282;10.078;2023-04-01T12:00:48;13.18;;;6.82;;
20073;SDS011;10197;54.282;10.078;2023-04-01T12:03:30;11.85;;;6.38;;
20073;SDS011;10197;54.282;10.078;2023-04-01T12:06:16;13.52;;;6.07;;
20073;SDS011;10197;54.282;10.078;2023-04-01T12:08:48;18.30;;;7.93;;
20073;SDS011;10197;54.282;10.078;2023-04-01T12:11:26;11.93;;;6.70;;
20073;SDS011;10197;54.282;10.078;2023-04-01T12:13:59;10.60;;;6.05;;
20073;SDS011;10197;54.282;10.078;2023-04-01T12:16:31;10.98;;;5.80;;
20073;SDS011;10197;54.282;10.078;2023-04-01T12:19:11;9.50;;;6.55;;
20073;SDS011;10197;54.282;10.078;2023-04-01T12:21:45;11.27;;;6.30;;
20073;SDS011;10197;54.282;10.078;2023-04-01T12:24:28;9.93;;;5.32;;
20073;SDS011;10197;54.282;10.078;2023-04-01T12:27:11;10.60;;;4.95;;
20073;SDS011;10197;54.282;10.078;2023-04-01T12:36:11;10.20;;;4.88;;
20073;SDS011;10197;54.282;10.078;2023-04-01T12:38:44;12.48;;;5.20;;
20073;SDS011;10197;54.282;10.078;2023-04-01T12:41:24;12.75;;;5.57;;
20073;SDS011;10197;54.282;10.078;2023-04-01T12:47:06;10.55;;;4.95;;
20073;SDS011;10197;54.282;10.078;2023-04-01T12:49:52;7.68;;;4.78;;
20073;SDS011;10197;54.282;10.078;2023-04-01T12:52:25;8.05;;;5.28;;
20073;SDS011;10197;54.282;10.078;2023-04-01T12:55:03;10.68;;;5.20;;
20073;SDS011;10197;54.282;10.078;2023-04-01T13:07:09;14.38;;;4.55;;
20073;SDS011;10197;54.282;10.078;2023-04-01T13:09:45;9.35;;;5.03;;
20073;SDS011;10197;54.282;10.078;2023-04-01T13:12:23;11.10;;;4.97;;
20073;SDS011;10197;54.282;10.078;2023-04-01T13:15:13;12.75;;;5.22;;
20073;SDS011;10197;54.282;10.078;2023-04-01T13:17:48;9.60;;;4.95;;
20073;SDS011;10197;54.282;10.078;2023-04-01T13:20:24;9.15;;;5.05;;
20073;SDS011;10197;54.282;10.078;2023-04-01T13:23:01;10.50;;;4.88;;
20073;SDS011;10197;54.282;10.078;2023-04-01T13:25:39;9.65;;;4.95;;
20073;SDS011;10197;54.282;10.078;2023-04-01T13:28:12;9.25;;;4.55;;
20073;SDS011;10197;54.282;10.078;2023-04-01T13:30:44;11.10;;;5.10;;
20073;SDS011;10197;54.282;10.078;2023-04-01T13:33:16;9.95;;;6.13;;
20073;SDS011;10197;54.282;10.078;2023-04-01T13:35:54;11.40;;;4.60;;
20073;SDS011;10197;54.282;10.078;2023-04-01T13:38:39;8.77;;;4.70;;
20073;SDS011;10197;54.282;10.078;2023-04-01T13:41:29;6.68;;;4.25;;
20073;SDS011;10197;54.282;10.078;2023-04-01T13:44:07;10.23;;;5.13;;
20073;SDS011;10197;54.282;10.078;2023-04-01T13:46:41;10.85;;;4.68;;
20073;SDS011;10197;54.282;10.078;2023-04-01T13:49:22;14.32;;;4.75;;
20073;SDS011;10197;54.282;10.078;2023-04-01T13:58:16;9.07;;;4.30;;
20073;SDS011;10197;54.282;10.078;2023-04-01T14:00:54;8.23;;;4.05;;
20073;SDS011;10197;54.282;10.078;2023-04-01T14:06:19;7.60;;;3.90;;
20073;SDS011;10197;54.282;10.078;2023-04-01T14:08:58;7.72;;;3.83;;
20073;SDS011;10197;54.282;10.078;2023-04-01T14:11:39;8.85;;;4.00;;
20073;SDS011;10197;54.282;10.078;2023-04-01T14:14:17;6.75;;;3.90;;
20073;SDS011;10197;54.282;10.078;2023-04-01T14:16:56;9.05;;;4.13;;
20073;SDS011;10197;54.282;10.078;2023-04-01T14:19:33;7.55;;;3.80;;
20073;SDS011;10197;54.282;10.078;2023-04-01T14:22:10;7.53;;;4.05;;
20073;SDS011;10197;54.282;10.078;2023-04-01T14:24:45;11.60;;;4.63;;
20073;SDS011;10197;54.282;10.078;2023-04-01T14:27:30;5.60;;;3.60;;
20073;SDS011;10197;54.282;10.078;2023-04-01T14:30:11;9.05;;;3.78;;
20073;SDS011;10197;54.282;10.078;2023-04-01T14:32:46;11.40;;;4.20;;
20073;SDS011;10197;54.282;10.078;2023-04-01T14:35:21;8.75;;;3.50;;
20073;SDS011;10197;54.282;10.078;2023-04-01T14:38:01;7.40;;;3.70;;
20073;SDS011;10197;54.282;10.078;2023-04-01T14:40:34;7.10;;;3.70;;
20073;SDS011;10197;54.282;10.078;2023-04-01T14:43:20;8.07;;;4.80;;
20073;SDS011;10197;54.282;10.078;2023-04-01T14:46:07;8.52;;;4.45;;
20073;SDS011;10197;54.282;10.078;2023-04-01T14:48:39;12.50;;;4.50;;
20073;SDS011;10197;54.282;10.078;2023-04-01T14:51:18;10.65;;;3.50;;
20073;SDS011;10197;54.282;10.078;2023-04-01T14:53:52;6.60;;;3.30;;
20073;SDS011;10197;54.282;10.078;2023-04-01T14:56:35;7.47;;;3.53;;
20073;SDS011;10197;54.282;10.078;2023-04-01T14:59:04;7.35;;;3.75;;
20073;SDS011;10197;54.282;10.078;2023-04-01T15:01:42;7.80;;;3.92;;
20073;SDS011;10197;54.282;10.078;2023-04-01T15:04:25;5.45;;;3.22;;
20073;SDS011;10197;54.282;10.078;2023-04-01T15:07:10;12.25;;;4.20;;
20073;SDS011;10197;54.282;10.078;2023-04-01T15:09:47;6.95;;;3.50;;
20073;SDS011;10197;54.282;10.078;2023-04-01T15:12:20;7.07;;;3.40;;
20073;SDS011;10197;54.282;10.078;2023-04-01T15:15:02;8.63;;;3.50;;
20073;SDS011;10197;54.282;10.078;2023-04-01T15:17:57;8.77;;;3.90;;
20073;SDS011;10197;54.282;10.078;2023-04-01T15:20:33;8.93;;;3.85;;
20073;SDS011;10197;54.282;10.078;2023-04-01T15:23:12;6.65;;;3.85;;
20073;SDS011;10197;54.282;10.078;2023-04-01T15:25:51;6.57;;;3.20;;
20073;SDS011;10197;54.282;10.078;2023-04-01T15:28:28;7.72;;;3.88;;
20073;SDS011;10197;54.282;10.078;2023-04-01T15:31:00;11.07;;;3.92;;
20073;SDS011;10197;54.282;10.078;2023-04-01T15:33:45;5.28;;;3.65;;
20073;SDS011;10197;54.282;10.078;2023-04-01T15:36:21;8.30;;;5.22;;
20073;SDS011;10197;54.282;10.078;2023-04-01T15:38:57;9.30;;;5.32;;
20073;SDS011;10197;54.282;10.078;2023-04-01T15:41:28;24.05;;;3.97;;
20073;SDS011;10197;54.282;10.078;2023-04-01T15:44:02;7.45;;;3.88;;
20073;SDS011;10197;54.282;10.078;2023-04-01T15:49:19;12.85;;;4.93;;
20073;SDS011;10197;54.282;10.078;2023-04-01T15:51:53;6.65;;;3.55;;
20073;SDS011;10197;54.282;10.078;2023-04-01T15:57:20;9.95;;;3.35;;
20073;SDS011;10197;54.282;10.078;2023-04-01T16:00:02;6.63;;;3.15;;
20073;SDS011;10197;54.282;10.078;2023-04-01T16:02:42;6.68;;;3.55;;
20073;SDS011;10197;54.282;10.078;2023-04-01T16:05:22;5.75;;;3.22;;
20073;SDS011;10197;54.282;10.078;2023-04-01T16:07:55;5.35;;;3.30;;
20073;SDS011;10197;54.282;10.078;2023-04-01T16:10:31;6.47;;;3.25;;
20073;SDS011;10197;54.282;10.078;2023-04-01T16:13:34;9.73;;;3.72;;
20073;SDS011;10197;54.282;10.078;2023-04-01T16:16:12;6.75;;;4.13;;
20073;SDS011;10197;54.282;10.078;2023-04-01T16:18:49;7.57;;;3.50;;
20073;SDS011;10197;54.282;10.078;2023-04-01T16:21:27;4.78;;;3.25;;
20073;SDS011;10197;54.282;10.078;2023-04-01T16:24:04;6.22;;;3.58;;
20073;SDS011;10197;54.282;10.078;2023-04-01T16:26:37;7.88;;;3.15;;
20073;SDS011;10197;54.282;10.078;2023-04-01T16:29:08;6.50;;;2.90;;
20073;SDS011;10197;54.282;10.078;2023-04-01T16:31:41;5.55;;;3.10;;
20073;SDS011;10197;54.282;10.078;2023-04-01T16:34:14;4.18;;;2.60;;
20073;SDS011;10197;54.282;10.078;2023-04-01T16:36:45;8.60;;;3.42;;
20073;SDS011;10197;54.282;10.078;2023-04-01T16:39:21;5.20;;;2.78;;
20073;SDS011;10197;54.282;10.078;2023-04-01T16:41:55;6.57;;;3.20;;
20073;SDS011;10197;54.282;10.078;2023-04-01T16:44:48;4.20;;;2.28;;
20073;SDS011;10197;54.282;10.078;2023-04-01T16:47:17;5.93;;;2.55;;
20073;SDS011;10197;54.282;10.078;2023-04-01T16:49:46;9.55;;;2.97;;
20073;SDS011;10197;54.282;10.078;2023-04-01T16:52:29;5.95;;;2.72;;
20073;SDS011;10197;54.282;10.078;2023-04-01T16:55:01;7.53;;;2.90;;
20073;SDS011;10197;54.282;10.078;2023-04-01T16:57:32;5.82;;;2.67;;
20073;SDS011;10197;54.282;10.078;2023-04-01T17:00:03;4.00;;;2.35;;
20073;SDS011;10197;54.282;10.078;2023-04-01T17:02:43;7.63;;;2.90;;
20073;SDS011;10197;54.282;10.078;2023-04-01T17:05:13;6.82;;;3.00;;
20073;SDS011;10197;54.282;10.078;2023-04-01T17:07:43;4.60;;;2.60;;